sensor_id;sensor_type;location;lat;lon;timestamp;temperature;humidity
3310;DHT22;1667;53.238;10.394;2022-12-11T00:03:49;5.00;99.90
3310;DHT22;1667;53.238;10.394;2022-12-11T00:14:58;5.00;99.90
3310;DHT22;1667;53.238;10.394;2022-12-11T00:19:57;5.00;99.90
3310;DHT22;1667;53.238;10.394;2022-12-11T00:25:22;5.00;99.90
3310;DHT22;1667;53.238;10.394;2022-12-11T00:30:20;5.00;99.90
3310;DHT22;1667;53.238;10.394;2022-12-11T00:35:45;4.90;99.90
3310;DHT22;1667;53.238;10.394;2022-12-11T00:40:44;5.00;99.90
3310;DHT22;1667;53.238;10.394;2022-12-11T00:45:44;4.90;99.90
3310;DHT22;1667;53.238;10.394;2022-12-11T00:50:43;4.90;99.90
3310;DHT22;1667;53.238;10.394;2022-12-11T00:55:42;5.00;99.90
3310;DHT22;1667;53.238;10.394;2022-12-11T01:00:46;4.70;99.90
3310;DHT22;1667;53.238;10.394;2022-12-11T01:05:52;5.00;99.90
3310;DHT22;1667;53.238;10.394;2022-12-11T01:11:00;4.80;99.90
3310;DHT22;1667;53.238;10.394;2022-12-11T01:15:59;5.10;99.90
3310;DHT22;1667;53.238;10.394;2022-12-11T01:20:57;4.80;99.90
3310;DHT22;1667;53.238;10.394;2022-12-11T01:25:56;4.80;99.90
3310;DHT22;1667;53.238;10.394;2022-12-11T01:30:55;4.80;99.90
3310;DHT22;1667;53.238;10.394;2022-12-11T01:35:53;4.80;99.90
3310;DHT22;1667;53.238;10.394;2022-12-11T01:40:51;4.80;99.90
3310;DHT22;1667;53.238;10.394;2022-12-11T01:45:51;4.80;99.90
3310;DHT22;1667;53.238;10.394;2022-12-11T01:50:52;4.90;99.90
3310;DHT22;1667;53.238;10.394;2022-12-11T01:55:53;4.90;99.90
3310;DHT22;1667;53.238;10.394;2022-12-11T02:00:53;4.90;99.90
3310;DHT22;1667;53.238;10.394;2022-12-11T02:05:52;4.90;99.90
3310;DHT22;1667;53.238;10.394;2022-12-11T02:11:01;4.90;99.90
3310;DHT22;1667;53.238;10.394;2022-12-11T02:16:10;4.90;99.90
3310;DHT22;1667;53.238;10.394;2022-12-11T02:21:14;4.90;99.90
3310;DHT22;1667;53.238;10.394;2022-12-11T02:26:27;4.80;99.90
3310;DHT22;1667;53.238;10.394;2022-12-11T02:31:34;4.80;99.90
3310;DHT22;1667;53.238;10.394;2022-12-11T02:36:38;4.80;99.90
3310;DHT22;1667;53.238;10.394;2022-12-11T02:41:38;4.80;99.90
3310;DHT22;1667;53.238;10.394;2022-12-11T02:46:40;4.70;99.90
3310;DHT22;1667;53.238;10.394;2022-12-11T02:51:41;4.70;99.90
3310;DHT22;1667;53.238;10.394;2022-12-11T02:56:43;4.60;99.90
3310;DHT22;1667;53.238;10.394;2022-12-11T03:01:44;4.60;99.90
3310;DHT22;1667;53.238;10.394;2022-12-11T03:06:48;4.70;99.90
3310;DHT22;1667;53.238;10.394;2022-12-11T03:11:47;4.70;99.90
3310;DHT22;1667;53.238;10.394;2022-12-11T03:16:52;4.70;99.90
3310;DHT22;1667;53.238;10.394;2022-12-11T03:21:53;4.70;99.90
3310;DHT22;1667;53.238;10.394;2022-12-11T03:26:55;4.60;99.90
3310;DHT22;1667;53.238;10.394;2022-12-11T03:32:04;4.60;99.90
3310;DHT22;1667;53.238;10.394;2022-12-11T03:37:04;4.60;99.90
3310;DHT22;1667;53.238;10.394;2022-12-11T03:42:07;5.00;99.90
3310;DHT22;1667;53.238;10.394;2022-12-11T03:47:09;4.70;99.90
3310;DHT22;1667;53.238;10.394;2022-12-11T03:52:08;4.70;99.90
3310;DHT22;1667;53.238;10.394;2022-12-11T03:57:12;5.00;99.90
3310;DHT22;1667;53.238;10.394;2022-12-11T04:02:13;4.60;99.90
3310;DHT22;1667;53.238;10.394;2022-12-11T04:07:11;4.60;99.90
3310;DHT22;1667;53.238;10.394;2022-12-11T04:12:09;4.60;99.90
3310;DHT22;1667;53.238;10.394;2022-12-11T04:17:07;4.80;99.90
3310;DHT22;1667;53.238;10.394;2022-12-11T04:22:08;4.40;99.90
3310;DHT22;1667;53.238;10.394;2022-12-11T04:27:24;4.50;99.90
3310;DHT22;1667;53.238;10.394;2022-12-11T04:32:40;4.50;99.90
3310;DHT22;1667;53.238;10.394;2022-12-11T04:37:40;4.60;99.90
3310;DHT22;1667;53.238;10.394;2022-12-11T04:42:39;4.50;99.90
3310;DHT22;1667;53.238;10.394;2022-12-11T04:47:38;4.70;99.90
3310;DHT22;1667;53.238;10.394;2022-12-11T04:52:37;4.50;99.90
3310;DHT22;1667;53.238;10.394;2022-12-11T04:57:37;4.50;99.90
3310;DHT22;1667;53.238;10.394;2022-12-11T05:02:36;4.50;99.90
3310;DHT22;1667;53.238;10.394;2022-12-11T05:14:30;4.40;99.90
3310;DHT22;1667;53.238;10.394;2022-12-11T05:19:28;4.30;99.90
3310;DHT22;1667;53.238;10.394;2022-12-11T05:24:26;4.30;99.90
3310;DHT22;1667;53.238;10.394;2022-12-11T05:29:25;4.30;99.90
3310;DHT22;1667;53.238;10.394;2022-12-11T05:34:24;4.20;99.90
3310;DHT22;1667;53.238;10.394;2022-12-11T05:39:23;4.50;99.90
3310;DHT22;1667;53.238;10.394;2022-12-11T05:44:21;4.10;99.90
3310;DHT22;1667;53.238;10.394;2022-12-11T05:49:19;4.00;99.90
3310;DHT22;1667;53.238;10.394;2022-12-11T05:54:27;3.90;99.90
3310;DHT22;1667;53.238;10.394;2022-12-11T05:59:25;4.20;99.90
3310;DHT22;1667;53.238;10.394;2022-12-11T06:04:24;3.80;99.90
3310;DHT22;1667;53.238;10.394;2022-12-11T06:09:22;4.00;99.90
3310;DHT22;1667;53.238;10.394;2022-12-11T06:14:21;3.70;99.90
3310;DHT22;1667;53.238;10.394;2022-12-11T06:19:19;3.60;99.90
3310;DHT22;1667;53.238;10.394;2022-12-11T06:24:18;3.60;99.90
3310;DHT22;1667;53.238;10.394;2022-12-11T06:29:16;3.60;99.90
3310;DHT22;1667;53.238;10.394;2022-12-11T06:34:16;3.50;99.90
3310;DHT22;1667;53.238;10.394;2022-12-11T06:39:14;3.50;99.90
3310;DHT22;1667;53.238;10.394;2022-12-11T06:44:12;3.40;99.90
3310;DHT22;1667;53.238;10.394;2022-12-11T06:49:10;3.40;99.90
3310;DHT22;1667;53.238;10.394;2022-12-11T07:00:35;3.20;99.90
3310;DHT22;1667;53.238;10.394;2022-12-11T07:05:34;3.10;99.90
3310;DHT22;1667;53.238;10.394;2022-12-11T07:10:32;3.20;99.90
3310;DHT22;1667;53.238;10.394;2022-12-11T07:15:30;3.00;99.90
3310;DHT22;1667;53.238;10.394;2022-12-11T07:20:37;3.00;99.90
3310;DHT22;1667;53.238;10.394;2022-12-11T07:25:36;2.90;99.90
3310;DHT22;1667;53.238;10.394;2022-12-11T07:30:45;2.90;99.90
3310;DHT22;1667;53.238;10.394;2022-12-11T07:35:44;3.00;99.90
3310;DHT22;1667;53.238;10.394;2022-12-11T07:40:43;2.80;99.90
3310;DHT22;1667;53.238;10.394;2022-12-11T07:45:41;2.70;99.90
3310;DHT22;1667;53.238;10.394;2022-12-11T07:50:39;2.60;99.90
3310;DHT22;1667;53.238;10.394;2022-12-11T08:03:04;2.40;99.90
3310;DHT22;1667;53.238;10.394;2022-12-11T08:08:03;2.30;99.90
3310;DHT22;1667;53.238;10.394;2022-12-11T08:13:01;2.30;99.90
3310;DHT22;1667;53.238;10.394;2022-12-11T08:17:59;2.20;99.90
3310;DHT22;1667;53.238;10.394;2022-12-11T08:22:59;2.30;99.90
3310;DHT22;1667;53.238;10.394;2022-12-11T08:27:57;2.30;99.90
3310;DHT22;1667;53.238;10.394;2022-12-11T08:38:33;2.30;99.90
3310;DHT22;1667;53.238;10.394;2022-12-11T08:43:32;2.40;99.90
3310;DHT22;1667;53.238;10.394;2022-12-11T08:48:30;2.40;99.90
3310;DHT22;1667;53.238;10.394;2022-12-11T08:53:29;2.50;99.90
3310;DHT22;1667;53.238;10.394;2022-12-11T08:58:29;2.70;99.90
3310;DHT22;1667;53.238;10.394;2022-12-11T09:03:27;2.50;99.90
3310;DHT22;1667;53.238;10.394;2022-12-11T09:08:25;2.50;99.90
3310;DHT22;1667;53.238;10.394;2022-12-11T09:13:23;2.50;99.90
3310;DHT22;1667;53.238;10.394;2022-12-11T09:18:23;2.60;99.90
3310;DHT22;1667;53.238;10.394;2022-12-11T09:23:21;2.70;99.90
3310;DHT22;1667;53.238;10.394;2022-12-11T09:28:19;2.70;99.90
3310;DHT22;1667;53.238;10.394;2022-12-11T09:33:18;2.70;99.90
3310;DHT22;1667;53.238;10.394;2022-12-11T09:38:17;2.80;99.90
3310;DHT22;1667;53.238;10.394;2022-12-11T09:50:14;2.90;99.90
3310;DHT22;1667;53.238;10.394;2022-12-11T10:02:16;3.00;99.90
3310;DHT22;1667;53.238;10.394;2022-12-11T10:07:46;3.00;99.90
3310;DHT22;1667;53.238;10.394;2022-12-11T10:12:49;3.10;99.90
3310;DHT22;1667;53.238;10.394;2022-12-11T10:17:55;3.20;99.90
3310;DHT22;1667;53.238;10.394;2022-12-11T10:23:01;3.20;99.90
3310;DHT22;1667;53.238;10.394;2022-12-11T10:28:07;3.30;99.90
3310;DHT22;1667;53.238;10.394;2022-12-11T10:33:19;3.40;99.90
3310;DHT22;1667;53.238;10.394;2022-12-11T10:38:44;3.50;99.90
3310;DHT22;1667;53.238;10.394;2022-12-11T10:43:45;3.50;99.90
3310;DHT22;1667;53.238;10.394;2022-12-11T10:48:46;3.50;99.90
3310;DHT22;1667;53.238;10.394;2022-12-11T10:53:49;3.60;99.90
3310;DHT22;1667;53.238;10.394;2022-12-11T10:58:49;3.70;99.90
3310;DHT22;1667;53.238;10.394;2022-12-11T11:03:58;3.70;99.90
3310;DHT22;1667;53.238;10.394;2022-12-11T11:09:00;3.80;99.90
3310;DHT22;1667;53.238;10.394;2022-12-11T11:20:56;3.80;99.90
3310;DHT22;1667;53.238;10.394;2022-12-11T11:25:55;3.90;99.90
3310;DHT22;1667;53.238;10.394;2022-12-11T11:30:58;3.90;99.90
3310;DHT22;1667;53.238;10.394;2022-12-11T11:36:00;4.00;99.90
3310;DHT22;1667;53.238;10.394;2022-12-11T11:41:08;4.10;99.90
3310;DHT22;1667;53.238;10.394;2022-12-11T11:46:13;4.20;99.90
3310;DHT22;1667;53.238;10.394;2022-12-11T11:51:42;4.20;99.90
3310;DHT22;1667;53.238;10.394;2022-12-11T11:56:41;4.20;99.90
3310;DHT22;1667;53.238;10.394;2022-12-11T12:01:41;4.20;99.90
3310;DHT22;1667;53.238;10.394;2022-12-11T12:13:37;4.30;99.90
3310;DHT22;1667;53.238;10.394;2022-12-11T12:18:55;4.50;99.90
3310;DHT22;1667;53.238;10.394;2022-12-11T12:24:04;4.30;99.90
3310;DHT22;1667;53.238;10.394;2022-12-11T12:29:17;4.70;99.90
3310;DHT22;1667;53.238;10.394;2022-12-11T12:34:25;4.30;99.90
3310;DHT22;1667;53.238;10.394;2022-12-11T12:39:32;4.20;99.90
3310;DHT22;1667;53.238;10.394;2022-12-11T12:44:41;3.80;99.90
3310;DHT22;1667;53.238;10.394;2022-12-11T12:49:45;4.20;99.90
3310;DHT22;1667;53.238;10.394;2022-12-11T12:55:20;4.00;99.90
3310;DHT22;1667;53.238;10.394;2022-12-11T13:00:33;3.80;99.90
3310;DHT22;1667;53.238;10.394;2022-12-11T13:12:33;4.10;99.90
3310;DHT22;1667;53.238;10.394;2022-12-11T13:18:03;4.70;99.90
3310;DHT22;1667;53.238;10.394;2022-12-11T13:23:26;4.50;99.90
3310;DHT22;1667;53.238;10.394;2022-12-11T13:28:31;4.60;99.90
3310;DHT22;1667;53.238;10.394;2022-12-11T13:33:32;4.70;99.90
3310;DHT22;1667;53.238;10.394;2022-12-11T13:38:36;4.70;99.90
3310;DHT22;1667;53.238;10.394;2022-12-11T13:44:11;4.80;99.90
3310;DHT22;1667;53.238;10.394;2022-12-11T13:49:21;4.80;99.90
3310;DHT22;1667;53.238;10.394;2022-12-11T13:54:19;4.90;99.90
3310;DHT22;1667;53.238;10.394;2022-12-11T13:59:22;4.70;99.90
3310;DHT22;1667;53.238;10.394;2022-12-11T14:11:17;4.90;99.90
3310;DHT22;1667;53.238;10.394;2022-12-11T14:16:19;4.90;99.90
3310;DHT22;1667;53.238;10.394;2022-12-11T14:21:20;5.00;99.90
3310;DHT22;1667;53.238;10.394;2022-12-11T14:26:22;5.00;99.90
3310;DHT22;1667;53.238;10.394;2022-12-11T14:31:26;5.00;99.90
3310;DHT22;1667;53.238;10.394;2022-12-11T14:36:26;4.90;99.90
3310;DHT22;1667;53.238;10.394;2022-12-11T14:47:11;4.90;99.90
3310;DHT22;1667;53.238;10.394;2022-12-11T14:59:01;5.00;99.90
3310;DHT22;1667;53.238;10.394;2022-12-11T15:04:27;5.00;99.90
3310;DHT22;1667;53.238;10.394;2022-12-11T15:09:37;5.00;99.90
3310;DHT22;1667;53.238;10.394;2022-12-11T15:15:05;5.00;99.90
3310;DHT22;1667;53.238;10.394;2022-12-11T15:20:07;5.00;99.90
3310;DHT22;1667;53.238;10.394;2022-12-11T15:25:17;5.00;99.90
3310;DHT22;1667;53.238;10.394;2022-12-11T15:30:31;4.90;99.90
3310;DHT22;1667;53.238;10.394;2022-12-11T15:41:35;4.90;99.90
3310;DHT22;1667;53.238;10.394;2022-12-11T15:53:22;4.80;99.90
3310;DHT22;1667;53.238;10.394;2022-12-11T15:58:22;4.80;99.90
3310;DHT22;1667;53.238;10.394;2022-12-11T16:03:23;4.80;99.90
3310;DHT22;1667;53.238;10.394;2022-12-11T16:08:23;4.80;99.90
3310;DHT22;1667;53.238;10.394;2022-12-11T16:13:22;5.10;99.90
3310;DHT22;1667;53.238;10.394;2022-12-11T16:18:23;4.80;99.90
3310;DHT22;1667;53.238;10.394;2022-12-11T16:23:22;4.80;99.90
3310;DHT22;1667;53.238;10.394;2022-12-11T16:28:22;4.90;99.90
3310;DHT22;1667;53.238;10.394;2022-12-11T16:33:20;4.80;99.90
3310;DHT22;1667;53.238;10.394;2022-12-11T16:38:18;4.90;99.90
3310;DHT22;1667;53.238;10.394;2022-12-11T16:43:16;4.90;99.90
3310;DHT22;1667;53.238;10.394;2022-12-11T16:48:16;4.80;99.90
3310;DHT22;1667;53.238;10.394;2022-12-11T16:53:14;4.80;99.90
3310;DHT22;1667;53.238;10.394;2022-12-11T16:58:13;4.80;99.90
3310;DHT22;1667;53.238;10.394;2022-12-11T17:03:19;4.80;99.90
3310;DHT22;1667;53.238;10.394;2022-12-11T17:08:17;4.80;99.90
3310;DHT22;1667;53.238;10.394;2022-12-11T17:13:16;5.10;99.90
3310;DHT22;1667;53.238;10.394;2022-12-11T17:18:14;4.90;99.90
3310;DHT22;1667;53.238;10.394;2022-12-11T17:23:13;4.90;99.90
3310;DHT22;1667;53.238;10.394;2022-12-11T17:28:12;4.80;99.90
3310;DHT22;1667;53.238;10.394;2022-12-11T17:33:10;4.80;99.90
3310;DHT22;1667;53.238;10.394;2022-12-11T17:38:08;4.80;99.90
3310;DHT22;1667;53.238;10.394;2022-12-11T17:43:08;4.80;99.90
3310;DHT22;1667;53.238;10.394;2022-12-11T17:48:06;4.80;99.90
3310;DHT22;1667;53.238;10.394;2022-12-11T17:53:04;4.80;99.90
3310;DHT22;1667;53.238;10.394;2022-12-11T17:58:03;4.70;99.90
3310;DHT22;1667;53.238;10.394;2022-12-11T18:03:03;4.80;99.90
3310;DHT22;1667;53.238;10.394;2022-12-11T18:08:01;4.80;99.90
3310;DHT22;1667;53.238;10.394;2022-12-11T18:12:59;4.80;99.90
3310;DHT22;1667;53.238;10.394;2022-12-11T18:17:57;4.80;99.90
3310;DHT22;1667;53.238;10.394;2022-12-11T18:22:57;4.80;99.90
3310;DHT22;1667;53.238;10.394;2022-12-11T18:27:55;4.80;99.90
3310;DHT22;1667;53.238;10.394;2022-12-11T18:32:55;5.10;99.90
3310;DHT22;1667;53.238;10.394;2022-12-11T18:38:20;5.10;99.90
3310;DHT22;1667;53.238;10.394;2022-12-11T18:43:19;4.70;99.90
3310;DHT22;1667;53.238;10.394;2022-12-11T18:48:17;5.10;99.90
3310;DHT22;1667;53.238;10.394;2022-12-11T18:53:16;5.00;99.90
3310;DHT22;1667;53.238;10.394;2022-12-11T18:58:17;4.90;99.90
3310;DHT22;1667;53.238;10.394;2022-12-11T19:03:16;4.90;99.90
3310;DHT22;1667;53.238;10.394;2022-12-11T19:08:14;5.10;99.90
3310;DHT22;1667;53.238;10.394;2022-12-11T19:20:05;4.90;99.90
3310;DHT22;1667;53.238;10.394;2022-12-11T19:25:24;4.90;99.90
3310;DHT22;1667;53.238;10.394;2022-12-11T19:30:22;5.10;99.90
3310;DHT22;1667;53.238;10.394;2022-12-11T19:35:23;4.80;99.90
3310;DHT22;1667;53.238;10.394;2022-12-11T19:40:21;4.80;99.90
3310;DHT22;1667;53.238;10.394;2022-12-11T19:45:22;4.80;99.90
3310;DHT22;1667;53.238;10.394;2022-12-11T19:50:20;4.80;99.90
3310;DHT22;1667;53.238;10.394;2022-12-11T19:55:20;4.80;99.90
3310;DHT22;1667;53.238;10.394;2022-12-11T20:00:18;5.20;99.90
3310;DHT22;1667;53.238;10.394;2022-12-11T20:05:17;4.90;99.90
3310;DHT22;1667;53.238;10.394;2022-12-11T20:10:15;4.90;99.90
3310;DHT22;1667;53.238;10.394;2022-12-11T20:15:15;4.90;99.90
3310;DHT22;1667;53.238;10.394;2022-12-11T20:20:15;4.90;99.90
3310;DHT22;1667;53.238;10.394;2022-12-11T20:25:13;4.80;99.90
3310;DHT22;1667;53.238;10.394;2022-12-11T20:30:13;4.80;99.90
3310;DHT22;1667;53.238;10.394;2022-12-11T20:35:12;4.90;99.90
3310;DHT22;1667;53.238;10.394;2022-12-11T20:40:11;4.90;99.90
3310;DHT22;1667;53.238;10.394;2022-12-11T20:45:10;4.90;99.90
3310;DHT22;1667;53.238;10.394;2022-12-11T20:50:10;4.90;99.90
3310;DHT22;1667;53.238;10.394;2022-12-11T20:55:09;5.00;99.90
3310;DHT22;1667;53.238;10.394;2022-12-11T21:00:09;4.90;99.90
3310;DHT22;1667;53.238;10.394;2022-12-11T21:05:07;4.80;99.90
3310;DHT22;1667;53.238;10.394;2022-12-11T21:10:08;4.90;99.90
3310;DHT22;1667;53.238;10.394;2022-12-11T21:15:08;4.90;99.90
3310;DHT22;1667;53.238;10.394;2022-12-11T21:20:07;4.90;99.90
3310;DHT22;1667;53.238;10.394;2022-12-11T21:25:08;4.90;99.90
3310;DHT22;1667;53.238;10.394;2022-12-11T21:30:07;4.90;99.90
3310;DHT22;1667;53.238;10.394;2022-12-11T21:35:06;4.90;99.90
3310;DHT22;1667;53.238;10.394;2022-12-11T21:40:08;4.90;99.90
3310;DHT22;1667;53.238;10.394;2022-12-11T21:45:06;4.90;99.90
3310;DHT22;1667;53.238;10.394;2022-12-11T21:50:24;4.90;99.90
3310;DHT22;1667;53.238;10.394;2022-12-11T21:55:24;4.90;99.90
3310;DHT22;1667;53.238;10.394;2022-12-11T22:00:22;5.20;99.90
3310;DHT22;1667;53.238;10.394;2022-12-11T22:05:21;4.90;99.90
3310;DHT22;1667;53.238;10.394;2022-12-11T22:10:19;5.00;99.90
3310;DHT22;1667;53.238;10.394;2022-12-11T22:15:18;5.00;99.90
3310;DHT22;1667;53.238;10.394;2022-12-11T22:20:17;5.00;99.90
3310;DHT22;1667;53.238;10.394;2022-12-11T22:31:47;5.00;99.90
3310;DHT22;1667;53.238;10.394;2022-12-11T22:36:46;4.90;99.90
3310;DHT22;1667;53.238;10.394;2022-12-11T22:55:38;4.70;99.90
3310;DHT22;1667;53.238;10.394;2022-12-11T23:00:36;4.60;99.90
3310;DHT22;1667;53.238;10.394;2022-12-11T23:12:32;4.60;99.90
3310;DHT22;1667;53.238;10.394;2022-12-11T23:17:30;4.60;99.90
3310;DHT22;1667;53.238;10.394;2022-12-11T23:29:23;4.50;99.90
3310;DHT22;1667;53.238;10.394;2022-12-11T23:34:21;4.40;99.90
3310;DHT22;1667;53.238;10.394;2022-12-11T23:39:20;4.30;99.90
3310;DHT22;1667;53.238;10.394;2022-12-11T23:44:18;4.70;99.90
3310;DHT22;1667;53.238;10.394;2022-12-11T23:49:17;4.30;99.90
3310;DHT22;1667;53.238;10.394;2022-12-11T23:54:15;4.30;99.90
